sensor_id;sensor_type;location;lat;lon;timestamp;temperature;humidity
23137;DHT22;11737;50.558;7.258;2023-01-31T00:01:57;7.70;99.90
23137;DHT22;11737;50.558;7.258;2023-01-31T00:04:24;7.80;99.90
23137;DHT22;11737;50.558;7.258;2023-01-31T00:06:52;7.70;99.90
23137;DHT22;11737;50.558;7.258;2023-01-31T00:09:19;7.70;99.90
23137;DHT22;11737;50.558;7.258;2023-01-31T00:11:47;7.70;99.90
23137;DHT22;11737;50.558;7.258;2023-01-31T00:14:17;7.70;99.90
23137;DHT22;11737;50.558;7.258;2023-01-31T00:16:45;7.70;99.90
23137;DHT22;11737;50.558;7.258;2023-01-31T00:19:13;7.60;99.90
23137;DHT22;11737;50.558;7.258;2023-01-31T00:21:41;7.50;99.90
23137;DHT22;11737;50.558;7.258;2023-01-31T00:24:13;7.50;99.90
23137;DHT22;11737;50.558;7.258;2023-01-31T00:26:41;7.50;99.90
23137;DHT22;11737;50.558;7.258;2023-01-31T00:29:09;7.50;99.90
23137;DHT22;11737;50.558;7.258;2023-01-31T00:31:36;7.50;99.90
23137;DHT22;11737;50.558;7.258;2023-01-31T00:34:04;7.50;99.90
23137;DHT22;11737;50.558;7.258;2023-01-31T00:36:33;7.50;99.90
23137;DHT22;11737;50.558;7.258;2023-01-31T00:39:02;7.50;99.90
23137;DHT22;11737;50.558;7.258;2023-01-31T00:41:31;7.50;99.90
23137;DHT22;11737;50.558;7.258;2023-01-31T00:43:59;7.50;99.90
23137;DHT22;11737;50.558;7.258;2023-01-31T00:46:27;7.50;99.90
23137;DHT22;11737;50.558;7.258;2023-01-31T00:48:55;7.50;99.90
23137;DHT22;11737;50.558;7.258;2023-01-31T00:51:25;7.50;99.90
23137;DHT22;11737;50.558;7.258;2023-01-31T00:53:53;7.50;99.90
23137;DHT22;11737;50.558;7.258;2023-01-31T00:56:22;7.50;99.90
23137;DHT22;11737;50.558;7.258;2023-01-31T00:58:51;7.50;99.90
23137;DHT22;11737;50.558;7.258;2023-01-31T01:01:27;7.60;99.90
23137;DHT22;11737;50.558;7.258;2023-01-31T01:03:56;7.60;99.90
23137;DHT22;11737;50.558;7.258;2023-01-31T01:06:24;7.60;99.90
23137;DHT22;11737;50.558;7.258;2023-01-31T01:08:53;7.60;99.90
23137;DHT22;11737;50.558;7.258;2023-01-31T01:11:27;7.70;99.90
23137;DHT22;11737;50.558;7.258;2023-01-31T01:13:51;7.60;99.90
23137;DHT22;11737;50.558;7.258;2023-01-31T01:16:22;7.60;99.90
23137;DHT22;11737;50.558;7.258;2023-01-31T01:18:50;7.70;99.90
23137;DHT22;11737;50.558;7.258;2023-01-31T01:21:22;7.80;99.90
23137;DHT22;11737;50.558;7.258;2023-01-31T01:23:51;7.90;99.90
23137;DHT22;11737;50.558;7.258;2023-01-31T01:26:21;7.80;99.90
23137;DHT22;11737;50.558;7.258;2023-01-31T01:28:49;7.90;99.90
23137;DHT22;11737;50.558;7.258;2023-01-31T01:31:18;8.00;99.90
23137;DHT22;11737;50.558;7.258;2023-01-31T01:33:47;8.00;99.90
23137;DHT22;11737;50.558;7.258;2023-01-31T01:36:17;8.10;99.90
23137;DHT22;11737;50.558;7.258;2023-01-31T01:39:06;8.10;99.90
23137;DHT22;11737;50.558;7.258;2023-01-31T01:41:36;8.10;99.90
23137;DHT22;11737;50.558;7.258;2023-01-31T01:46:51;8.10;99.90
23137;DHT22;11737;50.558;7.258;2023-01-31T01:52:11;8.10;99.90
23137;DHT22;11737;50.558;7.258;2023-01-31T01:54:51;7.90;99.90
23137;DHT22;11737;50.558;7.258;2023-01-31T01:57:21;7.90;99.90
23137;DHT22;11737;50.558;7.258;2023-01-31T02:02:37;7.70;99.90
23137;DHT22;11737;50.558;7.258;2023-01-31T02:05:06;7.60;99.90
23137;DHT22;11737;50.558;7.258;2023-01-31T02:07:35;7.50;99.90
23137;DHT22;11737;50.558;7.258;2023-01-31T02:10:06;7.40;99.90
23137;DHT22;11737;50.558;7.258;2023-01-31T02:12:33;7.40;99.90
23137;DHT22;11737;50.558;7.258;2023-01-31T02:15:02;7.40;99.90
23137;DHT22;11737;50.558;7.258;2023-01-31T02:17:30;7.40;99.90
23137;DHT22;11737;50.558;7.258;2023-01-31T02:22:42;7.60;99.90
23137;DHT22;11737;50.558;7.258;2023-01-31T02:25:31;7.60;99.90
23137;DHT22;11737;50.558;7.258;2023-01-31T02:28:18;7.70;99.90
23137;DHT22;11737;50.558;7.258;2023-01-31T02:37:54;7.80;99.90
23137;DHT22;11737;50.558;7.258;2023-01-31T02:39:42;7.80;99.90
23137;DHT22;11737;50.558;7.258;2023-01-31T02:42:27;7.80;99.90
23137;DHT22;11737;50.558;7.258;2023-01-31T02:45:27;7.80;99.90
23137;DHT22;11737;50.558;7.258;2023-01-31T02:51:32;7.90;99.90
23137;DHT22;11737;50.558;7.258;2023-01-31T02:53:21;7.90;99.90
23137;DHT22;11737;50.558;7.258;2023-01-31T02:56:09;7.80;99.90
23137;DHT22;11737;50.558;7.258;2023-01-31T03:01:32;7.70;99.90
23137;DHT22;11737;50.558;7.258;2023-01-31T03:07:00;7.60;99.90
23137;DHT22;11737;50.558;7.258;2023-01-31T03:09:35;7.60;99.90
23137;DHT22;11737;50.558;7.258;2023-01-31T03:12:15;7.60;99.90
23137;DHT22;11737;50.558;7.258;2023-01-31T03:15:00;7.60;99.90
23137;DHT22;11737;50.558;7.258;2023-01-31T03:17:21;7.60;99.90
23137;DHT22;11737;50.558;7.258;2023-01-31T03:20:05;7.70;99.90
23137;DHT22;11737;50.558;7.258;2023-01-31T03:22:38;7.80;99.90
23137;DHT22;11737;50.558;7.258;2023-01-31T03:25:08;7.80;99.90
23137;DHT22;11737;50.558;7.258;2023-01-31T03:27:38;7.70;99.90
23137;DHT22;11737;50.558;7.258;2023-01-31T03:30:12;7.80;99.90
23137;DHT22;11737;50.558;7.258;2023-01-31T03:32:42;7.70;99.90
23137;DHT22;11737;50.558;7.258;2023-01-31T03:35:10;7.60;99.90
23137;DHT22;11737;50.558;7.258;2023-01-31T03:37:46;7.60;99.90
23137;DHT22;11737;50.558;7.258;2023-01-31T03:40:23;7.60;99.90
23137;DHT22;11737;50.558;7.258;2023-01-31T03:43:19;7.60;99.90
23137;DHT22;11737;50.558;7.258;2023-01-31T03:45:56;7.60;99.90
23137;DHT22;11737;50.558;7.258;2023-01-31T03:48:25;7.50;99.90
23137;DHT22;11737;50.558;7.258;2023-01-31T03:50:59;7.20;99.90
23137;DHT22;11737;50.558;7.258;2023-01-31T03:59:12;6.90;99.90
23137;DHT22;11737;50.558;7.258;2023-01-31T04:01:42;6.60;99.90
23137;DHT22;11737;50.558;7.258;2023-01-31T04:04:17;6.60;99.90
23137;DHT22;11737;50.558;7.258;2023-01-31T04:06:40;6.30;99.90
23137;DHT22;11737;50.558;7.258;2023-01-31T04:09:08;6.10;99.90
23137;DHT22;11737;50.558;7.258;2023-01-31T04:11:37;6.00;99.90
23137;DHT22;11737;50.558;7.258;2023-01-31T04:14:06;5.90;99.90
23137;DHT22;11737;50.558;7.258;2023-01-31T04:16:34;5.80;99.90
23137;DHT22;11737;50.558;7.258;2023-01-31T04:19:01;5.80;99.90
23137;DHT22;11737;50.558;7.258;2023-01-31T04:21:29;5.70;99.90
23137;DHT22;11737;50.558;7.258;2023-01-31T04:23:56;5.70;99.90
23137;DHT22;11737;50.558;7.258;2023-01-31T04:26:24;5.60;99.90
23137;DHT22;11737;50.558;7.258;2023-01-31T04:28:51;5.60;99.90
23137;DHT22;11737;50.558;7.258;2023-01-31T04:31:19;5.70;99.90
23137;DHT22;11737;50.558;7.258;2023-01-31T04:33:46;5.60;99.90
23137;DHT22;11737;50.558;7.258;2023-01-31T04:36:14;5.50;99.90
23137;DHT22;11737;50.558;7.258;2023-01-31T04:38:41;5.40;99.90
23137;DHT22;11737;50.558;7.258;2023-01-31T04:41:09;5.20;99.90
23137;DHT22;11737;50.558;7.258;2023-01-31T04:43:36;5.20;99.90
23137;DHT22;11737;50.558;7.258;2023-01-31T04:46:04;5.10;99.90
23137;DHT22;11737;50.558;7.258;2023-01-31T04:48:31;5.00;99.90
23137;DHT22;11737;50.558;7.258;2023-01-31T04:50:59;4.90;99.90
23137;DHT22;11737;50.558;7.258;2023-01-31T04:53:26;4.80;99.90
23137;DHT22;11737;50.558;7.258;2023-01-31T04:55:54;4.70;99.90
23137;DHT22;11737;50.558;7.258;2023-01-31T04:58:22;4.70;99.90
23137;DHT22;11737;50.558;7.258;2023-01-31T05:00:52;4.70;99.90
23137;DHT22;11737;50.558;7.258;2023-01-31T05:03:19;4.70;99.90
23137;DHT22;11737;50.558;7.258;2023-01-31T05:05:48;4.60;99.90
23137;DHT22;11737;50.558;7.258;2023-01-31T05:08:16;4.60;99.90
23137;DHT22;11737;50.558;7.258;2023-01-31T05:10:44;4.60;99.90
23137;DHT22;11737;50.558;7.258;2023-01-31T05:13:11;4.60;99.90
23137;DHT22;11737;50.558;7.258;2023-01-31T05:15:40;4.50;99.90
23137;DHT22;11737;50.558;7.258;2023-01-31T05:18:07;4.30;99.90
23137;DHT22;11737;50.558;7.258;2023-01-31T05:20:38;4.20;99.90
23137;DHT22;11737;50.558;7.258;2023-01-31T05:23:07;4.20;99.90
23137;DHT22;11737;50.558;7.258;2023-01-31T05:25:36;4.10;99.90
23137;DHT22;11737;50.558;7.258;2023-01-31T05:28:04;4.00;99.90
23137;DHT22;11737;50.558;7.258;2023-01-31T05:30:31;3.90;99.90
23137;DHT22;11737;50.558;7.258;2023-01-31T05:32:59;3.80;99.90
23137;DHT22;11737;50.558;7.258;2023-01-31T05:35:27;3.80;99.90
23137;DHT22;11737;50.558;7.258;2023-01-31T05:37:54;3.70;99.90
23137;DHT22;11737;50.558;7.258;2023-01-31T05:40:22;3.70;99.90
23137;DHT22;11737;50.558;7.258;2023-01-31T05:42:57;3.70;99.90
23137;DHT22;11737;50.558;7.258;2023-01-31T05:45:27;3.70;99.90
23137;DHT22;11737;50.558;7.258;2023-01-31T05:47:55;3.60;99.90
23137;DHT22;11737;50.558;7.258;2023-01-31T05:50:23;3.50;99.90
23137;DHT22;11737;50.558;7.258;2023-01-31T05:52:55;3.50;99.90
23137;DHT22;11737;50.558;7.258;2023-01-31T05:55:26;3.50;99.90
23137;DHT22;11737;50.558;7.258;2023-01-31T05:57:53;3.50;99.90
23137;DHT22;11737;50.558;7.258;2023-01-31T06:00:22;3.40;99.90
23137;DHT22;11737;50.558;7.258;2023-01-31T06:02:50;3.40;99.90
23137;DHT22;11737;50.558;7.258;2023-01-31T06:05:18;3.40;99.90
23137;DHT22;11737;50.558;7.258;2023-01-31T06:07:45;3.30;99.90
23137;DHT22;11737;50.558;7.258;2023-01-31T06:10:13;3.30;99.90
23137;DHT22;11737;50.558;7.258;2023-01-31T06:12:41;3.20;99.90
23137;DHT22;11737;50.558;7.258;2023-01-31T06:15:08;3.30;99.90
23137;DHT22;11737;50.558;7.258;2023-01-31T06:17:36;3.40;99.90
23137;DHT22;11737;50.558;7.258;2023-01-31T06:20:04;3.40;99.90
23137;DHT22;11737;50.558;7.258;2023-01-31T06:22:32;3.60;99.90
23137;DHT22;11737;50.558;7.258;2023-01-31T06:24:59;3.60;99.90
23137;DHT22;11737;50.558;7.258;2023-01-31T06:27:27;3.70;99.90
23137;DHT22;11737;50.558;7.258;2023-01-31T06:29:56;3.70;99.90
23137;DHT22;11737;50.558;7.258;2023-01-31T06:32:23;3.60;99.90
23137;DHT22;11737;50.558;7.258;2023-01-31T06:34:51;3.60;99.90
23137;DHT22;11737;50.558;7.258;2023-01-31T06:37:18;3.60;99.90
23137;DHT22;11737;50.558;7.258;2023-01-31T06:39:46;3.50;99.90
23137;DHT22;11737;50.558;7.258;2023-01-31T06:42:13;3.50;99.90
23137;DHT22;11737;50.558;7.258;2023-01-31T06:44:40;3.50;99.90
23137;DHT22;11737;50.558;7.258;2023-01-31T06:47:08;3.40;99.90
23137;DHT22;11737;50.558;7.258;2023-01-31T06:49:35;3.20;99.90
23137;DHT22;11737;50.558;7.258;2023-01-31T06:52:03;3.10;99.90
23137;DHT22;11737;50.558;7.258;2023-01-31T06:54:31;3.10;99.90
23137;DHT22;11737;50.558;7.258;2023-01-31T06:56:58;3.00;99.90
23137;DHT22;11737;50.558;7.258;2023-01-31T06:59:26;3.00;99.90
23137;DHT22;11737;50.558;7.258;2023-01-31T07:01:53;2.90;99.90
23137;DHT22;11737;50.558;7.258;2023-01-31T07:04:21;2.90;99.90
23137;DHT22;11737;50.558;7.258;2023-01-31T07:06:48;2.90;99.90
23137;DHT22;11737;50.558;7.258;2023-01-31T07:09:16;2.90;99.90
23137;DHT22;11737;50.558;7.258;2023-01-31T07:11:43;3.00;99.90
23137;DHT22;11737;50.558;7.258;2023-01-31T07:14:11;3.00;99.90
23137;DHT22;11737;50.558;7.258;2023-01-31T07:16:38;3.20;99.90
23137;DHT22;11737;50.558;7.258;2023-01-31T07:19:06;3.40;99.90
23137;DHT22;11737;50.558;7.258;2023-01-31T07:21:33;3.60;99.90
23137;DHT22;11737;50.558;7.258;2023-01-31T07:24:02;3.80;99.90
23137;DHT22;11737;50.558;7.258;2023-01-31T07:26:30;3.90;99.90
23137;DHT22;11737;50.558;7.258;2023-01-31T07:28:58;3.90;99.90
23137;DHT22;11737;50.558;7.258;2023-01-31T07:31:25;4.00;99.90
23137;DHT22;11737;50.558;7.258;2023-01-31T07:33:53;4.20;99.90
23137;DHT22;11737;50.558;7.258;2023-01-31T07:36:20;4.40;99.90
23137;DHT22;11737;50.558;7.258;2023-01-31T07:38:54;4.20;99.90
23137;DHT22;11737;50.558;7.258;2023-01-31T07:41:25;4.10;99.90
23137;DHT22;11737;50.558;7.258;2023-01-31T07:43:52;3.90;99.90
23137;DHT22;11737;50.558;7.258;2023-01-31T07:46:20;3.90;99.90
23137;DHT22;11737;50.558;7.258;2023-01-31T07:48:47;3.90;99.90
23137;DHT22;11737;50.558;7.258;2023-01-31T07:51:15;3.90;99.90
23137;DHT22;11737;50.558;7.258;2023-01-31T07:53:42;4.00;99.90
23137;DHT22;11737;50.558;7.258;2023-01-31T07:56:15;4.10;99.90
23137;DHT22;11737;50.558;7.258;2023-01-31T07:58:44;4.30;99.90
23137;DHT22;11737;50.558;7.258;2023-01-31T08:01:17;4.40;99.90
23137;DHT22;11737;50.558;7.258;2023-01-31T08:06:53;4.60;99.90
23137;DHT22;11737;50.558;7.258;2023-01-31T08:09:22;4.60;99.90
23137;DHT22;11737;50.558;7.258;2023-01-31T08:11:51;4.70;99.90
23137;DHT22;11737;50.558;7.258;2023-01-31T08:14:19;4.80;99.90
23137;DHT22;11737;50.558;7.258;2023-01-31T08:16:48;4.90;99.90
23137;DHT22;11737;50.558;7.258;2023-01-31T08:19:15;5.10;99.90
23137;DHT22;11737;50.558;7.258;2023-01-31T08:21:43;5.20;99.90
23137;DHT22;11737;50.558;7.258;2023-01-31T08:24:10;5.20;99.90
23137;DHT22;11737;50.558;7.258;2023-01-31T08:26:38;5.30;99.90
23137;DHT22;11737;50.558;7.258;2023-01-31T08:29:05;5.40;99.90
23137;DHT22;11737;50.558;7.258;2023-01-31T08:31:33;5.50;99.90
23137;DHT22;11737;50.558;7.258;2023-01-31T08:34:00;5.60;99.90
23137;DHT22;11737;50.558;7.258;2023-01-31T08:36:29;5.70;99.90
23137;DHT22;11737;50.558;7.258;2023-01-31T08:38:58;5.70;99.90
23137;DHT22;11737;50.558;7.258;2023-01-31T08:41:27;5.80;99.90
23137;DHT22;11737;50.558;7.258;2023-01-31T08:43:55;5.80;99.90
23137;DHT22;11737;50.558;7.258;2023-01-31T08:46:25;5.80;99.90
23137;DHT22;11737;50.558;7.258;2023-01-31T08:48:53;5.80;99.90
23137;DHT22;11737;50.558;7.258;2023-01-31T08:51:21;6.10;99.90
23137;DHT22;11737;50.558;7.258;2023-01-31T08:53:49;6.20;99.90
23137;DHT22;11737;50.558;7.258;2023-01-31T08:56:16;6.30;99.90
23137;DHT22;11737;50.558;7.258;2023-01-31T08:58:46;6.30;99.90
23137;DHT22;11737;50.558;7.258;2023-01-31T09:01:16;6.40;99.90
23137;DHT22;11737;50.558;7.258;2023-01-31T09:03:45;6.50;99.90
23137;DHT22;11737;50.558;7.258;2023-01-31T09:06:19;6.50;99.90
23137;DHT22;11737;50.558;7.258;2023-01-31T09:08:44;6.60;99.90
23137;DHT22;11737;50.558;7.258;2023-01-31T09:11:12;6.70;99.90
23137;DHT22;11737;50.558;7.258;2023-01-31T09:13:46;7.00;99.90
23137;DHT22;11737;50.558;7.258;2023-01-31T09:16:15;7.00;99.90
23137;DHT22;11737;50.558;7.258;2023-01-31T09:18:43;7.00;99.90
23137;DHT22;11737;50.558;7.258;2023-01-31T09:21:13;7.10;99.90
23137;DHT22;11737;50.558;7.258;2023-01-31T09:23:42;7.20;99.90
23137;DHT22;11737;50.558;7.258;2023-01-31T09:26:14;7.30;99.90
23137;DHT22;11737;50.558;7.258;2023-01-31T09:28:42;7.40;99.90
23137;DHT22;11737;50.558;7.258;2023-01-31T09:31:13;7.50;99.90
23137;DHT22;11737;50.558;7.258;2023-01-31T09:33:41;7.60;99.90
23137;DHT22;11737;50.558;7.258;2023-01-31T09:36:11;7.70;99.90
23137;DHT22;11737;50.558;7.258;2023-01-31T09:38:39;7.80;99.90
23137;DHT22;11737;50.558;7.258;2023-01-31T09:41:15;7.90;99.90
23137;DHT22;11737;50.558;7.258;2023-01-31T09:43:45;8.00;99.90
23137;DHT22;11737;50.558;7.258;2023-01-31T09:46:15;8.10;99.90
23137;DHT22;11737;50.558;7.258;2023-01-31T09:48:47;8.10;99.90
23137;DHT22;11737;50.558;7.258;2023-01-31T09:51:16;8.20;99.90
23137;DHT22;11737;50.558;7.258;2023-01-31T09:53:45;8.20;99.90
23137;DHT22;11737;50.558;7.258;2023-01-31T09:56:23;8.20;99.90
23137;DHT22;11737;50.558;7.258;2023-01-31T09:59:12;8.10;99.90
23137;DHT22;11737;50.558;7.258;2023-01-31T10:07:05;8.20;99.90
23137;DHT22;11737;50.558;7.258;2023-01-31T10:09:44;8.20;99.90
23137;DHT22;11737;50.558;7.258;2023-01-31T10:12:18;8.20;99.90
23137;DHT22;11737;50.558;7.258;2023-01-31T10:14:48;8.40;99.90
23137;DHT22;11737;50.558;7.258;2023-01-31T10:17:25;8.30;99.90
23137;DHT22;11737;50.558;7.258;2023-01-31T10:20:06;8.30;99.90
23137;DHT22;11737;50.558;7.258;2023-01-31T10:23:03;8.30;99.90
23137;DHT22;11737;50.558;7.258;2023-01-31T10:25:58;8.50;99.90
23137;DHT22;11737;50.558;7.258;2023-01-31T10:31:35;8.70;99.90
23137;DHT22;11737;50.558;7.258;2023-01-31T10:34:04;8.80;99.90
23137;DHT22;11737;50.558;7.258;2023-01-31T10:36:39;8.90;99.90
23137;DHT22;11737;50.558;7.258;2023-01-31T10:39:27;9.00;99.90
23137;DHT22;11737;50.558;7.258;2023-01-31T10:42:21;9.00;99.90
23137;DHT22;11737;50.558;7.258;2023-01-31T10:45:19;9.10;99.90
23137;DHT22;11737;50.558;7.258;2023-01-31T10:47:52;9.10;99.90
23137;DHT22;11737;50.558;7.258;2023-01-31T10:58:53;9.70;99.90
23137;DHT22;11737;50.558;7.258;2023-01-31T11:01:21;9.90;99.90
23137;DHT22;11737;50.558;7.258;2023-01-31T11:06:40;10.10;99.90
23137;DHT22;11737;50.558;7.258;2023-01-31T11:09:09;10.30;99.90
23137;DHT22;11737;50.558;7.258;2023-01-31T11:11:51;10.40;99.90
23137;DHT22;11737;50.558;7.258;2023-01-31T11:14:15;10.70;99.90
23137;DHT22;11737;50.558;7.258;2023-01-31T11:16:39;10.70;99.90
23137;DHT22;11737;50.558;7.258;2023-01-31T11:21:50;10.70;99.90
23137;DHT22;11737;50.558;7.258;2023-01-31T11:24:24;10.70;99.90
23137;DHT22;11737;50.558;7.258;2023-01-31T11:27:01;10.70;99.90
23137;DHT22;11737;50.558;7.258;2023-01-31T11:29:33;10.80;99.90
23137;DHT22;11737;50.558;7.258;2023-01-31T11:32:24;10.90;99.90
23137;DHT22;11737;50.558;7.258;2023-01-31T11:35:06;10.80;99.90
23137;DHT22;11737;50.558;7.258;2023-01-31T11:37:34;10.90;99.90
23137;DHT22;11737;50.558;7.258;2023-01-31T11:43:04;11.00;99.90
23137;DHT22;11737;50.558;7.258;2023-01-31T11:45:31;11.00;99.90
23137;DHT22;11737;50.558;7.258;2023-01-31T11:48:21;11.00;99.90
23137;DHT22;11737;50.558;7.258;2023-01-31T11:51:04;10.90;99.90
23137;DHT22;11737;50.558;7.258;2023-01-31T11:53:47;10.90;99.90
23137;DHT22;11737;50.558;7.258;2023-01-31T11:56:18;10.90;99.90
23137;DHT22;11737;50.558;7.258;2023-01-31T11:58:48;10.70;99.90
23137;DHT22;11737;50.558;7.258;2023-01-31T12:01:19;10.70;99.90
23137;DHT22;11737;50.558;7.258;2023-01-31T12:03:56;10.70;99.90
23137;DHT22;11737;50.558;7.258;2023-01-31T12:06:33;10.70;99.90
23137;DHT22;11737;50.558;7.258;2023-01-31T12:09:26;10.80;99.90
23137;DHT22;11737;50.558;7.258;2023-01-31T12:11:34;10.90;99.90
23137;DHT22;11737;50.558;7.258;2023-01-31T12:16:33;10.90;99.90
23137;DHT22;11737;50.558;7.258;2023-01-31T12:22:17;10.80;99.90
23137;DHT22;11737;50.558;7.258;2023-01-31T12:33:54;10.80;99.90
23137;DHT22;11737;50.558;7.258;2023-01-31T12:42:03;10.70;99.90
23137;DHT22;11737;50.558;7.258;2023-01-31T12:44:46;10.60;99.90
23137;DHT22;11737;50.558;7.258;2023-01-31T12:47:36;10.60;99.90
23137;DHT22;11737;50.558;7.258;2023-01-31T12:50:31;10.60;99.90
23137;DHT22;11737;50.558;7.258;2023-01-31T12:58:56;10.60;99.90
23137;DHT22;11737;50.558;7.258;2023-01-31T13:01:26;10.70;99.90
23137;DHT22;11737;50.558;7.258;2023-01-31T13:04:54;10.70;99.90
23137;DHT22;11737;50.558;7.258;2023-01-31T13:06:46;10.90;99.90
23137;DHT22;11737;50.558;7.258;2023-01-31T13:17:32;11.20;99.90
23137;DHT22;11737;50.558;7.258;2023-01-31T13:22:48;11.20;99.90
23137;DHT22;11737;50.558;7.258;2023-01-31T13:28:18;11.10;99.90
23137;DHT22;11737;50.558;7.258;2023-01-31T13:31:13;11.00;99.90
23137;DHT22;11737;50.558;7.258;2023-01-31T13:33:39;11.10;99.90
23137;DHT22;11737;50.558;7.258;2023-01-31T13:36:17;10.90;99.90
23137;DHT22;11737;50.558;7.258;2023-01-31T13:38:45;10.90;99.90
23137;DHT22;11737;50.558;7.258;2023-01-31T13:43:49;10.80;99.90
23137;DHT22;11737;50.558;7.258;2023-01-31T13:46:19;10.90;99.90
23137;DHT22;11737;50.558;7.258;2023-01-31T13:49:15;10.80;99.90
23137;DHT22;11737;50.558;7.258;2023-01-31T13:57:03;10.70;99.90
23137;DHT22;11737;50.558;7.258;2023-01-31T13:59:33;10.80;99.90
23137;DHT22;11737;50.558;7.258;2023-01-31T14:02:16;10.80;99.90
23137;DHT22;11737;50.558;7.258;2023-01-31T14:04:36;10.60;99.90
23137;DHT22;11737;50.558;7.258;2023-01-31T14:10:23;10.50;99.90
23137;DHT22;11737;50.558;7.258;2023-01-31T14:12:29;10.40;99.90
23137;DHT22;11737;50.558;7.258;2023-01-31T14:14:56;10.40;99.90
23137;DHT22;11737;50.558;7.258;2023-01-31T14:20:02;10.40;99.90
23137;DHT22;11737;50.558;7.258;2023-01-31T14:22:38;10.60;99.90
23137;DHT22;11737;50.558;7.258;2023-01-31T14:25:10;10.70;99.90
23137;DHT22;11737;50.558;7.258;2023-01-31T14:27:45;10.70;99.90
23137;DHT22;11737;50.558;7.258;2023-01-31T14:30:34;10.80;99.90
23137;DHT22;11737;50.558;7.258;2023-01-31T14:33:07;10.90;99.90
23137;DHT22;11737;50.558;7.258;2023-01-31T14:35:59;11.00;99.90
23137;DHT22;11737;50.558;7.258;2023-01-31T14:38:39;11.10;99.90
23137;DHT22;11737;50.558;7.258;2023-01-31T14:41:21;11.10;99.90
23137;DHT22;11737;50.558;7.258;2023-01-31T14:44:11;11.10;99.90
23137;DHT22;11737;50.558;7.258;2023-01-31T14:46:59;11.00;99.90
23137;DHT22;11737;50.558;7.258;2023-01-31T14:52:12;10.90;99.90
23137;DHT22;11737;50.558;7.258;2023-01-31T14:57:13;10.60;99.90
23137;DHT22;11737;50.558;7.258;2023-01-31T14:59:50;10.50;99.90
23137;DHT22;11737;50.558;7.258;2023-01-31T15:03:00;10.50;99.90
23137;DHT22;11737;50.558;7.258;2023-01-31T15:11:00;10.20;99.90
23137;DHT22;11737;50.558;7.258;2023-01-31T15:13:43;10.10;99.90
23137;DHT22;11737;50.558;7.258;2023-01-31T15:16:18;10.10;99.90
23137;DHT22;11737;50.558;7.258;2023-01-31T15:24:34;9.90;99.90
23137;DHT22;11737;50.558;7.258;2023-01-31T15:27:24;9.90;99.90
23137;DHT22;11737;50.558;7.258;2023-01-31T15:30:06;9.90;99.90
23137;DHT22;11737;50.558;7.258;2023-01-31T15:35:16;10.00;99.90
23137;DHT22;11737;50.558;7.258;2023-01-31T15:37:44;10.00;99.90
23137;DHT22;11737;50.558;7.258;2023-01-31T15:40:18;10.10;99.90
23137;DHT22;11737;50.558;7.258;2023-01-31T15:42:46;10.10;99.90
23137;DHT22;11737;50.558;7.258;2023-01-31T15:50:30;10.20;99.90
23137;DHT22;11737;50.558;7.258;2023-01-31T15:53:05;10.20;99.90
23137;DHT22;11737;50.558;7.258;2023-01-31T15:55:35;10.30;99.90
23137;DHT22;11737;50.558;7.258;2023-01-31T15:58:03;10.30;99.90
23137;DHT22;11737;50.558;7.258;2023-01-31T16:00:35;10.30;99.90
23137;DHT22;11737;50.558;7.258;2023-01-31T16:03:05;10.30;99.90
23137;DHT22;11737;50.558;7.258;2023-01-31T16:05:39;10.30;99.90
23137;DHT22;11737;50.558;7.258;2023-01-31T16:08:14;10.30;99.90
23137;DHT22;11737;50.558;7.258;2023-01-31T16:10:35;10.30;99.90
23137;DHT22;11737;50.558;7.258;2023-01-31T16:13:02;10.30;99.90
23137;DHT22;11737;50.558;7.258;2023-01-31T16:15:31;10.40;99.90
23137;DHT22;11737;50.558;7.258;2023-01-31T16:18:00;10.30;99.90
23137;DHT22;11737;50.558;7.258;2023-01-31T16:23:21;10.20;99.90
23137;DHT22;11737;50.558;7.258;2023-01-31T16:28:24;10.00;99.90
23137;DHT22;11737;50.558;7.258;2023-01-31T16:30:54;9.90;99.90
23137;DHT22;11737;50.558;7.258;2023-01-31T16:33:23;9.70;99.90
23137;DHT22;11737;50.558;7.258;2023-01-31T16:36:02;9.70;99.90
23137;DHT22;11737;50.558;7.258;2023-01-31T16:38:30;9.60;99.90
23137;DHT22;11737;50.558;7.258;2023-01-31T16:43:48;9.60;99.90
23137;DHT22;11737;50.558;7.258;2023-01-31T16:46:35;9.60;99.90
23137;DHT22;11737;50.558;7.258;2023-01-31T16:49:06;9.70;99.90
23137;DHT22;11737;50.558;7.258;2023-01-31T16:51:39;9.70;99.90
23137;DHT22;11737;50.558;7.258;2023-01-31T16:54:28;9.80;99.90
23137;DHT22;11737;50.558;7.258;2023-01-31T16:59:37;9.80;99.90
23137;DHT22;11737;50.558;7.258;2023-01-31T17:02:24;9.80;99.90
23137;DHT22;11737;50.558;7.258;2023-01-31T17:04:55;9.70;99.90
23137;DHT22;11737;50.558;7.258;2023-01-31T17:07:29;9.60;99.90
23137;DHT22;11737;50.558;7.258;2023-01-31T17:09:59;9.60;99.90
23137;DHT22;11737;50.558;7.258;2023-01-31T17:12:30;9.70;99.90
23137;DHT22;11737;50.558;7.258;2023-01-31T17:14:59;9.70;99.90
23137;DHT22;11737;50.558;7.258;2023-01-31T17:17:28;9.70;99.90
23137;DHT22;11737;50.558;7.258;2023-01-31T17:19:56;9.60;99.90
23137;DHT22;11737;50.558;7.258;2023-01-31T17:22:23;9.50;99.90
23137;DHT22;11737;50.558;7.258;2023-01-31T17:24:52;9.50;99.90
23137;DHT22;11737;50.558;7.258;2023-01-31T17:27:20;9.40;99.90
23137;DHT22;11737;50.558;7.258;2023-01-31T17:29:48;9.30;99.90
23137;DHT22;11737;50.558;7.258;2023-01-31T17:32:18;9.30;99.90
23137;DHT22;11737;50.558;7.258;2023-01-31T17:34:46;9.20;99.90
23137;DHT22;11737;50.558;7.258;2023-01-31T17:37:15;9.20;99.90
23137;DHT22;11737;50.558;7.258;2023-01-31T17:39:43;9.20;99.90
23137;DHT22;11737;50.558;7.258;2023-01-31T17:42:18;9.20;99.90
23137;DHT22;11737;50.558;7.258;2023-01-31T17:44:41;9.10;99.90
23137;DHT22;11737;50.558;7.258;2023-01-31T17:47:08;9.00;99.90
23137;DHT22;11737;50.558;7.258;2023-01-31T17:49:36;8.90;99.90
23137;DHT22;11737;50.558;7.258;2023-01-31T17:52:04;8.90;99.90
23137;DHT22;11737;50.558;7.258;2023-01-31T17:54:31;8.90;99.90
23137;DHT22;11737;50.558;7.258;2023-01-31T17:56:59;8.80;99.90
23137;DHT22;11737;50.558;7.258;2023-01-31T17:59:26;8.80;99.90
23137;DHT22;11737;50.558;7.258;2023-01-31T18:01:54;8.70;99.90
23137;DHT22;11737;50.558;7.258;2023-01-31T18:04:22;8.80;99.90
23137;DHT22;11737;50.558;7.258;2023-01-31T18:06:49;8.90;99.90
23137;DHT22;11737;50.558;7.258;2023-01-31T18:09:17;8.90;99.90
23137;DHT22;11737;50.558;7.258;2023-01-31T18:11:46;8.90;99.90
23137;DHT22;11737;50.558;7.258;2023-01-31T18:14:13;9.00;99.90
23137;DHT22;11737;50.558;7.258;2023-01-31T18:16:41;9.00;99.90
23137;DHT22;11737;50.558;7.258;2023-01-31T18:19:09;9.00;99.90
23137;DHT22;11737;50.558;7.258;2023-01-31T18:21:38;8.90;99.90
23137;DHT22;11737;50.558;7.258;2023-01-31T18:24:05;8.90;99.90
23137;DHT22;11737;50.558;7.258;2023-01-31T18:26:34;9.00;99.90
23137;DHT22;11737;50.558;7.258;2023-01-31T18:29:02;8.90;99.90
23137;DHT22;11737;50.558;7.258;2023-01-31T18:31:29;8.90;99.90
23137;DHT22;11737;50.558;7.258;2023-01-31T18:33:58;9.00;99.90
23137;DHT22;11737;50.558;7.258;2023-01-31T18:36:25;9.00;99.90
23137;DHT22;11737;50.558;7.258;2023-01-31T18:38:53;9.00;99.90